Time;durP1;ratioP1;P1;durP2;ratioP2;P2;SDS_P1;SDS_P2;PMS_P1;PMS_P2;Temp;Humidity;BMP_temperature;BMP_pressure;BME280_temperature;BME280_humidity;BME280_pressure;Samples;Min_cycle;Max_cycle;Signal;HPM_P1;HPM_P2
2023/07/07 00:00:14;;;;;;;10.77;8.60;;;512.70;2380.80;;;;;;5089223;28;20016;-60
2023/07/07 00:02:40;;;;;;;9.90;7.80;;;512.70;2380.80;;;;;;5089015;28;20051;-60
2023/07/07 00:05:06;;;;;;;10.32;8.30;;;512.70;2380.80;;;;;;5089163;28;20031;-60
2023/07/07 00:07:31;;;;;;;11.23;8.75;;;512.70;2380.80;;;;;;5088629;28;20454;-61
2023/07/07 00:09:57;;;;;;;13.88;8.13;;;512.60;2380.80;;;;;;5088873;28;20028;-60
2023/07/07 00:12:23;;;;;;;9.85;8.10;;;512.50;2380.80;;;;;;5088585;28;20034;-62
2023/07/07 00:14:49;;;;;;;8.95;7.70;;;512.60;2380.80;;;;;;5089251;28;20020;-61
2023/07/07 00:17:16;;;;;;;9.38;7.78;;;512.60;2380.80;;;;;;5089086;28;20450;-60
2023/07/07 00:19:42;;;;;;;9.52;7.60;;;512.60;2380.80;;;;;;5088953;28;20036;-60
2023/07/07 00:22:08;;;;;;;11.18;7.82;;;512.60;2380.80;;;;;;5083759;28;20032;-60
2023/07/07 00:24:35;;;;;;;8.88;6.80;;;512.60;2380.80;;;;;;5068779;28;20378;-59
2023/07/07 00:27:01;;;;;;;8.27;6.93;;;512.60;2380.80;;;;;;5087738;28;20024;-62
2023/07/07 00:29:26;;;;;;;9.23;7.57;;;512.60;2380.80;;;;;;5088970;28;20043;-60
2023/07/07 00:31:52;;;;;;;8.13;6.32;;;512.60;2380.80;;;;;;5088510;28;20051;-59
2023/07/07 00:34:18;;;;;;;8.40;6.95;;;512.50;2380.80;;;;;;5089092;28;20024;-60
2023/07/07 00:36:44;;;;;;;12.13;8.25;;;512.40;2380.80;;;;;;5088783;28;20023;-59
2023/07/07 00:39:10;;;;;;;8.70;7.13;;;512.50;2380.80;;;;;;5076467;28;20025;-60
2023/07/07 00:41:36;;;;;;;11.30;6.70;;;512.60;2380.80;;;;;;5074833;28;20034;-60
2023/07/07 00:44:07;;;;;;;10.27;6.72;;;512.60;2380.80;;;;;;5088180;28;20044;-60
2023/07/07 00:46:34;;;;;;;11.05;8.38;;;512.60;2380.80;;;;;;5088426;28;20032;-60
2023/07/07 00:49:04;;;;;;;9.50;8.13;;;512.70;2380.80;;;;;;5088177;28;20055;-60
2023/07/07 00:51:32;;;;;;;12.30;7.78;;;512.70;2380.80;;;;;;5088725;28;20525;-60
2023/07/07 00:53:59;;;;;;;8.88;7.63;;;512.90;2380.80;;;;;;5092248;28;20063;-59
2023/07/07 00:56:38;;;;;;;9.95;6.97;;;512.90;2380.80;;;;;;5084597;28;20024;-60
2023/07/07 00:59:08;;;;;;;13.90;8.75;;;537.60;2406.40;;;;;;5088494;28;20378;-60
2023/07/07 01:01:36;;;;;;;16.23;9.35;;;537.60;2406.40;;;;;;5092112;28;20025;-60
2023/07/07 01:04:04;;;;;;;10.80;8.88;;;512.80;2380.80;;;;;;5078592;28;20024;-60
2023/07/07 01:06:35;;;;;;;9.70;8.30;;;512.70;2380.80;;;;;;5092721;28;20027;-60
2023/07/07 01:09:06;;;;;;;11.15;8.30;;;512.60;2380.80;;;;;;5091920;28;20024;-59
2023/07/07 01:11:33;;;;;;;11.63;7.72;;;512.60;2380.80;;;;;;5092646;28;20028;-60
2023/07/07 01:14:02;;;;;;;10.85;8.82;;;512.60;2380.80;;;;;;5092190;28;20028;-59
2023/07/07 01:16:43;;;;;;;15.20;8.52;;;512.50;2380.80;;;;;;5091876;28;20032;-60
2023/07/07 01:19:50;;;;;;;9.32;7.32;;;512.40;2380.80;;;;;;5067479;28;20074;-60
2023/07/07 01:22:53;;;;;;;9.43;7.10;;;512.40;2380.80;;;;;;5003422;28;20053;-60
2023/07/07 01:25:46;;;;;;;10.13;7.07;;;512.30;2380.80;;;;;;4968904;28;20036;-60
2023/07/07 01:28:23;;;;;;;11.13;7.95;;;512.40;2380.80;;;;;;5084367;28;20074;-60
2023/07/07 01:30:55;;;;;;;7.95;6.18;;;512.30;2380.80;;;;;;5091909;28;20115;-56
2023/07/07 01:33:25;;;;;;;10.40;7.80;;;512.30;2380.80;;;;;;5091331;28;20079;-59
2023/07/07 01:35:51;;;;;;;13.90;7.35;;;512.30;2380.80;;;;;;5091808;28;20077;-60
2023/07/07 01:38:36;;;;;;;12.02;7.60;;;512.30;2380.80;;;;;;5072703;28;20029;-62
2023/07/07 01:41:10;;;;;;;15.13;8.63;;;512.40;2380.80;;;;;;5086292;28;20043;-59
2023/07/07 01:43:52;;;;;;;10.02;7.68;;;512.40;2380.80;;;;;;5091284;28;20030;-60
2023/07/07 01:46:34;;;;;;;8.93;7.82;;;512.40;2380.80;;;;;;5086624;28;20032;-60
2023/07/07 01:49:22;;;;;;;11.15;8.05;;;512.50;2380.80;;;;;;5085349;28;20039;-60
2023/07/07 01:52:00;;;;;;;10.68;8.00;;;512.30;2380.80;;;;;;5091998;28;20028;-61
2023/07/07 01:54:30;;;;;;;12.27;7.47;;;512.20;2380.80;;;;;;5091636;28;20024;-60
2023/07/07 01:56:58;;;;;;;10.23;8.10;;;512.30;2380.80;;;;;;5091678;28;20484;-61
2023/07/07 01:59:24;;;;;;;10.75;7.85;;;512.30;2380.80;;;;;;5090799;28;20512;-61
2023/07/07 02:01:50;;;;;;;8.75;7.13;;;512.30;2380.80;;;;;;5091311;28;20044;-61
2023/07/07 02:04:16;;;;;;;13.00;8.23;;;512.30;2380.80;;;;;;5076265;28;20442;-61
2023/07/07 02:06:42;;;;;;;12.68;8.02;;;512.30;2380.80;;;;;;5091224;28;20110;-62
2023/07/07 02:09:07;;;;;;;11.93;8.93;;;512.40;2380.80;;;;;;5091133;28;20065;-66
2023/07/07 02:11:33;;;;;;;9.88;7.65;;;512.40;2380.80;;;;;;5090992;28;20432;-64
2023/07/07 02:13:59;;;;;;;10.30;8.98;;;512.30;2380.80;;;;;;5090804;28;20458;-61
2023/07/07 02:16:25;;;;;;;11.00;8.15;;;512.30;2380.80;;;;;;5091422;28;20024;-60
2023/07/07 02:18:51;;;;;;;16.73;8.90;;;512.30;2380.80;;;;;;5086165;28;20451;-61
2023/07/07 02:21:18;;;;;;;9.90;8.35;;;512.20;2380.80;;;;;;5082339;28;20040;-60
2023/07/07 02:23:44;;;;;;;11.20;8.38;;;512.10;2380.80;;;;;;5090227;28;20020;-61
2023/07/07 02:26:13;;;;;;;10.80;8.35;;;487.30;2380.80;;;;;;5091212;28;20020;-60
2023/07/07 02:28:40;;;;;;;11.85;8.52;;;487.30;2380.80;;;;;;5090875;28;20431;-60
2023/07/07 02:31:06;;;;;;;11.68;9.60;;;487.30;2380.80;;;;;;5090661;28;20048;-60
2023/07/07 02:33:32;;;;;;;11.35;9.60;;;487.30;2380.80;;;;;;5090347;28;20012;-60
2023/07/07 02:36:02;;;;;;;13.90;9.55;;;512.00;2380.80;;;;;;5090394;28;20473;-60
2023/07/07 02:38:29;;;;;;;10.90;9.20;;;487.30;2380.80;;;;;;5090681;28;20020;-60
2023/07/07 02:40:55;;;;;;;11.52;9.45;;;512.00;2380.80;;;;;;5089682;28;20050;-60
2023/07/07 02:43:21;;;;;;;14.50;10.88;;;512.00;2380.80;;;;;;5090522;28;20035;-60
2023/07/07 02:45:46;;;;;;;14.60;11.43;;;512.00;2380.80;;;;;;5089773;28;20047;-60
2023/07/07 02:48:13;;;;;;;17.02;11.25;;;512.10;2380.80;;;;;;5090209;28;20040;-60
2023/07/07 02:50:39;;;;;;;15.45;11.52;;;512.10;2380.80;;;;;;5090625;28;20054;-60
2023/07/07 02:53:05;;;;;;;12.60;11.00;;;512.10;2380.80;;;;;;5076937;28;20573;-60
2023/07/07 02:55:30;;;;;;;13.25;10.82;;;512.10;2380.80;;;;;;5090104;28;20028;-60
2023/07/07 02:57:57;;;;;;;14.23;11.15;;;512.20;2380.80;;;;;;5090477;28;20048;-60
2023/07/07 03:00:24;;;;;;;13.80;11.38;;;512.30;2380.80;;;;;;5089562;28;20043;-60
2023/07/07 03:02:50;;;;;;;17.95;10.98;;;512.30;2380.80;;;;;;5090154;28;20024;-60
2023/07/07 03:05:16;;;;;;;15.60;12.25;;;512.40;2380.80;;;;;;5089972;28;20466;-60
2023/07/07 03:07:42;;;;;;;13.55;11.07;;;512.40;2380.80;;;;;;5090054;28;20028;-60
2023/07/07 03:10:09;;;;;;;16.20;12.32;;;512.40;2380.80;;;;;;5089932;28;20024;-64
2023/07/07 03:12:34;;;;;;;18.25;14.13;;;512.50;2380.80;;;;;;5089671;28;20405;-61
2023/07/07 03:15:00;;;;;;;19.63;12.98;;;512.50;2380.80;;;;;;5089200;28;20077;-61
2023/07/07 03:17:30;;;;;;;16.50;12.45;;;512.50;2380.80;;;;;;5076230;28;20032;-61
2023/07/07 03:19:56;;;;;;;16.77;13.05;;;512.40;2380.80;;;;;;5089584;28;20028;-61
2023/07/07 03:22:21;;;;;;;21.33;12.88;;;512.50;2380.80;;;;;;5089551;28;20375;-60
2023/07/07 03:24:50;;;;;;;15.80;13.45;;;512.50;2380.80;;;;;;5089565;28;20024;-61
2023/07/07 03:27:16;;;;;;;19.27;13.15;;;512.40;2380.80;;;;;;5082420;28;20052;-61
2023/07/07 03:29:42;;;;;;;18.38;13.02;;;512.50;2380.80;;;;;;5070096;28;20106;-61
2023/07/07 03:32:08;;;;;;;18.17;14.23;;;512.60;2380.80;;;;;;5090135;28;20035;-61
2023/07/07 03:34:36;;;;;;;15.88;13.30;;;512.60;2380.80;;;;;;5089370;28;20024;-61
2023/07/07 03:37:02;;;;;;;17.67;14.55;;;512.60;2380.80;;;;;;5089527;28;20499;-61
2023/07/07 03:39:28;;;;;;;17.25;13.57;;;512.70;2380.80;;;;;;5089617;28;20039;-60
2023/07/07 03:41:54;;;;;;;15.20;12.90;;;512.80;2380.80;;;;;;5089441;28;20466;-60
2023/07/07 03:44:19;;;;;;;16.48;14.07;;;512.90;2380.80;;;;;;5088814;28;20047;-61
2023/07/07 03:46:45;;;;;;;19.90;14.55;;;512.90;2380.80;;;;;;5087895;28;20016;-61
2023/07/07 03:49:11;;;;;;;19.77;14.45;;;537.60;2406.40;;;;;;5089191;28;20036;-61
2023/07/07 03:51:37;;;;;;;19.88;13.48;;;537.80;2406.40;;;;;;5089201;28;20363;-61
2023/07/07 03:54:04;;;;;;;16.77;13.20;;;537.90;2406.40;;;;;;5089295;28;20039;-61
2023/07/07 03:56:30;;;;;;;18.67;13.90;;;537.90;2406.40;;;;;;5089571;28;20020;-60
2023/07/07 03:58:56;;;;;;;17.30;13.93;;;538.00;2406.40;;;;;;5088840;28;20032;-61
2023/07/07 04:01:21;;;;;;;15.63;13.35;;;538.30;2406.40;;;;;;5089550;28;20071;-61
2023/07/07 04:03:47;;;;;;;16.42;11.98;;;538.50;2406.40;;;;;;5088918;28;20031;-61
2023/07/07 04:06:15;;;;;;;17.85;14.07;;;538.50;2406.40;;;;;;5089094;28;20028;-61
2023/07/07 04:08:41;;;;;;;17.33;12.93;;;538.50;2406.40;;;;;;5088652;28;20035;-61
2023/07/07 04:11:10;;;;;;;16.83;14.70;;;563.20;2432.00;;;;;;5089399;28;20020;-60
2023/07/07 04:13:38;;;;;;;16.65;12.00;;;563.50;2432.00;;;;;;5088839;28;20024;-60
2023/07/07 04:16:10;;;;;;;16.13;13.55;;;563.60;2432.00;;;;;;5088908;28;20141;-61
2023/07/07 04:18:36;;;;;;;17.95;13.02;;;563.60;2432.00;;;;;;5089281;28;20028;-61
2023/07/07 04:21:06;;;;;;;16.85;13.25;;;563.70;2432.00;;;;;;5088387;28;20340;-61
2023/07/07 04:23:33;;;;;;;18.77;14.45;;;563.70;2432.00;;;;;;5088790;28;20486;-61
2023/07/07 04:26:00;;;;;;;13.93;12.48;;;564.00;2432.00;;;;;;5088972;28;20063;-61
2023/07/07 04:28:26;;;;;;;16.20;13.50;;;588.80;2432.00;;;;;;5091975;28;20024;-62
2023/07/07 04:30:56;;;;;;;15.82;13.45;;;588.90;2432.00;;;;;;5092026;28;20031;-60
2023/07/07 04:33:23;;;;;;;19.02;13.35;;;589.10;2432.00;;;;;;5092913;28;20024;-61
2023/07/07 04:35:57;;;;;;;18.45;12.27;;;589.30;2432.00;;;;;;5093126;28;20048;-60
2023/07/07 04:38:30;;;;;;;16.10;12.93;;;589.50;2432.00;;;;;;5092868;28;20020;-60
2023/07/07 04:41:11;;;;;;;;;;;589.60;2432.00;;;;;;5093255;28;20016;-60
2023/07/07 04:43:45;;;;;;;15.55;13.10;;;614.90;2432.00;;;;;;5092099;28;19918;-60
2023/07/07 04:46:15;;;;;;;14.15;12.27;;;614.80;2432.00;;;;;;5093127;28;20378;-61
2023/07/07 04:48:41;;;;;;;13.77;11.88;;;640.10;2432.00;;;;;;5092063;28;20032;-62
2023/07/07 04:51:08;;;;;;;16.38;11.88;;;;;;;;;;5092303;28;20111;-60
2023/07/07 04:53:35;;;;;;;22.00;12.73;;;665.90;2432.00;;;;;;5092098;28;20028;-60
2023/07/07 04:56:02;;;;;;;14.23;12.43;;;665.60;2432.00;;;;;;5091902;28;20028;-66
2023/07/07 04:58:28;;;;;;;15.55;12.82;;;691.90;2432.00;;;;;;5065920;28;20451;-63
2023/07/07 05:01:07;;;;;;;13.98;12.10;;;717.40;2432.00;;;;;;5091815;28;20024;-61
2023/07/07 05:03:34;;;;;;;18.48;12.60;;;742.80;2432.00;;;;;;5069216;28;20123;-60
2023/07/07 05:06:02;;;;;;;15.88;12.10;;;717.30;2432.00;;;;;;5090121;28;20595;-61
2023/07/07 05:08:29;;;;;;;15.75;12.02;;;717.20;2432.00;;;;;;5079697;28;20048;-60
2023/07/07 05:10:55;;;;;;;22.63;11.98;;;717.30;2432.00;;;;;;5092327;28;20099;-60
2023/07/07 05:13:21;;;;;;;17.55;13.05;;;742.80;2406.40;;;;;;5092145;28;20107;-61
2023/07/07 05:15:46;;;;;;;24.02;12.48;;;768.90;2278.40;;;;;;5091710;28;20030;-61
2023/07/07 05:18:12;;;;;;;13.32;11.98;;;794.30;2201.60;;;;;;5092104;28;20020;-61
2023/07/07 05:20:38;;;;;;;16.73;12.00;;;819.90;2073.60;;;;;;5092105;28;20034;-61
2023/07/07 05:23:03;;;;;;;15.05;12.90;;;844.80;2022.40;;;;;;5091909;28;20390;-61
2023/07/07 05:25:29;;;;;;;15.52;11.30;;;844.80;1996.80;;;;;;5092028;28;20060;-60
2023/07/07 05:27:55;;;;;;;13.07;11.75;;;870.60;1894.40;;;;;;5092163;28;20020;-60
2023/07/07 05:30:20;;;;;;;14.02;12.52;;;819.60;1971.20;;;;;;5091266;28;20020;-61
2023/07/07 05:32:46;;;;;;;12.32;10.98;;;819.20;2048.00;;;;;;5092005;28;20560;-61
2023/07/07 05:35:12;;;;;;;13.82;12.32;;;844.80;1945.60;;;;;;5091978;28;20039;-61
2023/07/07 05:37:37;;;;;;;14.05;12.43;;;794.10;2048.00;;;;;;5092006;28;20382;-61
2023/07/07 05:40:04;;;;;;;14.43;12.15;;;793.70;2099.20;;;;;;5090976;28;20020;-61
2023/07/07 05:42:29;;;;;;;15.27;12.27;;;768.70;2073.60;;;;;;5091360;28;20032;-59
2023/07/07 05:44:55;;;;;;;14.32;12.25;;;794.10;2073.60;;;;;;5090512;28;20046;-63
2023/07/07 05:47:21;;;;;;;13.35;11.98;;;819.20;2022.40;;;;;;5091753;28;20481;-61
2023/07/07 05:49:46;;;;;;;20.67;13.55;;;793.90;2073.60;;;;;;5092187;28;20030;-69
2023/07/07 05:52:14;;;;;;;14.38;11.88;;;819.30;2048.00;;;;;;5089774;28;20032;-61
2023/07/07 05:54:40;;;;;;;13.85;12.55;;;870.90;1868.80;;;;;;5089735;28;20095;-61
2023/07/07 05:57:06;;;;;;;15.43;11.82;;;896.40;1792.00;;;;;;5091172;28;20112;-61
2023/07/07 05:59:32;;;;;;;14.15;12.73;;;;;;;;;;5090181;28;20028;-61
2023/07/07 06:01:57;;;;;;;13.90;12.68;;;947.50;1689.60;;;;;;5080337;28;20470;-63
2023/07/07 06:04:23;;;;;;;14.77;12.95;;;973.70;1561.60;;;;;;5077075;28;20052;-63
2023/07/07 06:06:49;;;;;;;14.43;13.05;;;1024.10;1510.40;;;;;;5091438;28;20110;-61
2023/07/07 06:09:15;;;;;;;13.43;12.18;;;1024.10;1459.20;;;;;;5089976;28;20382;-61
2023/07/07 06:11:41;;;;;;;14.38;13.05;;;1024.60;1459.20;;;;;;5091118;28;20030;-62
2023/07/07 06:14:06;;;;;;;14.77;13.48;;;1050.30;1433.60;;;;;;5090894;28;20026;-61
2023/07/07 06:16:32;;;;;;;14.95;13.43;;;1050.30;1408.00;;;;;;5090687;28;20107;-62
2023/07/07 06:18:58;;;;;;;14.18;12.77;;;1050.40;1408.00;;;;;;5090119;28;20040;-64
2023/07/07 06:21:23;;;;;;;15.32;13.82;;;1049.90;1408.00;;;;;;5091257;28;20539;-62
2023/07/07 06:23:49;;;;;;;14.10;12.80;;;1049.80;1382.40;;;;;;5090802;28;20028;-62
2023/07/07 06:26:15;;;;;;;14.20;12.70;;;1049.90;1382.40;;;;;;5090818;28;20050;-61
2023/07/07 06:28:40;;;;;;;13.48;12.18;;;1050.10;1382.40;;;;;;5090785;28;20020;-61
2023/07/07 06:31:06;;;;;;;16.70;15.20;;;1075.20;1356.80;;;;;;5090822;28;20077;-61
2023/07/07 06:33:32;;;;;;;15.90;14.40;;;1101.00;1331.20;;;;;;5090272;28;20111;-62
2023/07/07 06:35:58;;;;;;;14.48;12.73;;;1101.20;1305.60;;;;;;5090824;28;20036;-61
2023/07/07 06:38:23;;;;;;;13.50;12.07;;;1126.40;1305.60;;;;;;5090058;28;20543;-61
2023/07/07 06:40:49;;;;;;;14.30;12.95;;;1050.10;1356.80;;;;;;5090656;28;20099;-61
2023/07/07 06:43:18;;;;;;;13.70;12.40;;;1024.50;1382.40;;;;;;5090309;28;20040;-61
2023/07/07 06:45:48;;;;;;;14.50;12.77;;;1024.60;1382.40;;;;;;5090206;28;20101;-62
2023/07/07 06:48:14;;;;;;;13.40;12.15;;;998.80;1433.60;;;;;;5090049;28;20036;-61
2023/07/07 06:50:41;;;;;;;14.27;11.82;;;973.20;1484.80;;;;;;5089953;28;20093;-61
2023/07/07 06:53:07;;;;;;;12.73;11.52;;;922.50;1561.60;;;;;;5090320;28;20474;-61
2023/07/07 06:55:33;;;;;;;13.05;11.85;;;896.50;1587.20;;;;;;5090097;28;20138;-61
2023/07/07 06:57:58;;;;;;;13.85;12.55;;;896.40;1612.80;;;;;;5090298;28;20494;-61
2023/07/07 07:00:24;;;;;;;13.85;12.55;;;922.40;1587.20;;;;;;5084165;28;20112;-61
2023/07/07 07:02:50;;;;;;;14.30;12.82;;;973.60;1484.80;;;;;;5085726;28;20832;-61
2023/07/07 07:05:16;;;;;;;13.63;12.43;;;973.20;1510.40;;;;;;5090543;28;20028;-62
2023/07/07 07:07:42;;;;;;;13.18;11.98;;;1024.20;1433.60;;;;;;5090064;28;20073;-61
2023/07/07 07:10:09;;;;;;;13.65;12.27;;;998.80;1459.20;;;;;;5090634;28;20020;-61
2023/07/07 07:12:35;;;;;;;13.70;12.32;;;922.20;1561.60;;;;;;5090084;28;20024;-61
2023/07/07 07:15:01;;;;;;;14.20;12.73;;;896.80;1587.20;;;;;;5089873;28;20437;-62
2023/07/07 07:17:26;;;;;;;15.05;12.60;;;871.30;1638.40;;;;;;5063846;28;20051;-61
2023/07/07 07:19:52;;;;;;;14.75;13.35;;;870.40;1715.20;;;;;;5089337;28;20027;-61
2023/07/07 07:22:18;;;;;;;13.02;11.75;;;845.70;1715.20;;;;;;5076650;28;20058;-61
2023/07/07 07:24:44;;;;;;;14.20;12.70;;;845.40;1740.80;;;;;;5089356;28;20035;-61
2023/07/07 07:27:10;;;;;;;13.48;12.15;;;845.30;1766.40;;;;;;5089817;28;20020;-61
2023/07/07 07:29:36;;;;;;;14.43;12.98;;;845.10;1766.40;;;;;;5089439;28;20085;-60
2023/07/07 07:32:01;;;;;;;16.20;12.60;;;845.60;1740.80;;;;;;5087452;28;20028;-61
2023/07/07 07:34:30;;;;;;;15.00;13.10;;;870.40;1715.20;;;;;;5088067;28;20066;-62
2023/07/07 07:36:58;;;;;;;13.52;12.18;;;845.20;1766.40;;;;;;5084626;28;20020;-62
2023/07/07 07:39:24;;;;;;;14.85;13.30;;;820.10;1766.40;;;;;;5088323;28;20066;-61
2023/07/07 07:41:52;;;;;;;13.90;12.63;;;819.60;1817.60;;;;;;5089569;28;20035;-61
2023/07/07 07:44:20;;;;;;;15.43;13.25;;;819.50;1817.60;;;;;;5089443;28;20048;-69
2023/07/07 07:46:47;;;;;;;15.48;13.52;;;794.00;1894.40;;;;;;5087307;28;20074;-60
2023/07/07 07:49:14;;;;;;;17.05;14.38;;;794.30;1868.80;;;;;;5087202;28;20482;-61
2023/07/07 07:51:40;;;;;;;16.58;13.35;;;845.40;1766.40;;;;;;5089572;28;20028;-61
2023/07/07 07:54:07;;;;;;;17.92;14.73;;;845.20;1766.40;;;;;;5089376;28;20608;-61
2023/07/07 07:56:33;;;;;;;14.82;13.32;;;845.20;1817.60;;;;;;5088920;28;20036;-62
2023/07/07 07:58:59;;;;;;;13.98;12.55;;;820.10;1817.60;;;;;;5088288;28;20032;-61
2023/07/07 08:01:26;;;;;;;16.00;14.43;;;844.80;1817.60;;;;;;5080030;28;20028;-61
2023/07/07 08:03:52;;;;;;;15.45;13.77;;;896.20;1664.00;;;;;;5084148;28;20086;-64
2023/07/07 08:06:18;;;;;;;15.45;13.85;;;947.30;1561.60;;;;;;5090203;28;20059;-61
2023/07/07 08:08:44;;;;;;;16.52;14.80;;;947.90;1510.40;;;;;;5089031;28;20433;-68
2023/07/07 08:11:13;;;;;;;16.50;15.00;;;973.40;1510.40;;;;;;5080759;28;20454;-61
2023/07/07 08:13:39;;;;;;;15.98;14.35;;;972.90;1510.40;;;;;;5084458;28;20035;-61
2023/07/07 08:16:05;;;;;;;17.58;14.32;;;947.70;1510.40;;;;;;5088674;28;20024;-67
2023/07/07 08:18:31;;;;;;;18.73;13.85;;;922.40;1561.60;;;;;;5088553;28;20032;-62
2023/07/07 08:20:56;;;;;;;16.05;13.38;;;896.90;1561.60;;;;;;5089116;28;20019;-60
2023/07/07 08:23:22;;;;;;;17.50;14.32;;;896.10;1612.80;;;;;;5088612;28;20529;-63
2023/07/07 08:25:51;;;;;;;16.17;13.57;;;871.10;1638.40;;;;;;5089152;28;20024;-60
2023/07/07 08:28:16;;;;;;;16.10;14.48;;;870.50;1689.60;;;;;;5088629;28;20062;-60
2023/07/07 08:30:42;;;;;;;15.80;14.20;;;845.60;1715.20;;;;;;5088912;28;20044;-60
2023/07/07 08:33:08;;;;;;;14.40;13.00;;;845.10;1740.80;;;;;;5088793;28;20124;-62
2023/07/07 08:35:34;;;;;;;16.17;13.25;;;820.00;1715.20;;;;;;5088606;28;20023;-60
2023/07/07 08:38:00;;;;;;;14.73;13.15;;;819.50;1740.80;;;;;;5088394;28;20413;-60
2023/07/07 08:40:35;;;;;;;19.80;13.02;;;819.60;1715.20;;;;;;5088614;28;20050;-60
2023/07/07 08:43:00;;;;;;;14.13;12.65;;;819.80;1689.60;;;;;;5088629;28;20024;-59
2023/07/07 08:45:27;;;;;;;15.52;13.10;;;819.60;1689.60;;;;;;5088599;28;20089;-60
2023/07/07 08:48:20;;;;;;;16.52;13.60;;;819.70;1689.60;;;;;;5083551;28;20025;-61
2023/07/07 08:50:59;;;;;;;14.57;12.07;;;794.40;1740.80;;;;;;5072534;28;20122;-60
2023/07/07 08:53:31;;;;;;;17.25;14.10;;;794.40;1766.40;;;;;;5062138;28;20516;-60
2023/07/07 08:56:06;;;;;;;16.55;14.82;;;793.70;1817.60;;;;;;5088318;28;20052;-60
2023/07/07 08:58:35;;;;;;;16.20;13.55;;;768.50;1843.20;;;;;;5088495;28;20028;-61
2023/07/07 09:01:12;;;;;;;15.60;13.60;;;768.10;1894.40;;;;;;5088156;28;20032;-63
2023/07/07 09:04:05;;;;;;;14.02;12.55;;;742.90;1945.60;;;;;;5088523;28;20040;-64
2023/07/07 09:06:37;;;;;;;16.55;13.32;;;742.80;1945.60;;;;;;5056238;28;20020;-63
2023/07/07 09:09:14;;;;;;;21.75;13.85;;;742.50;1920.00;;;;;;5086095;28;20039;-64
2023/07/07 09:11:51;;;;;;;15.52;12.90;;;717.60;1945.60;;;;;;5088587;28;20039;-63
2023/07/07 09:14:18;;;;;;;17.35;14.38;;;742.40;1920.00;;;;;;5057746;28;20020;-59
2023/07/07 09:16:45;;;;;;;13.80;12.32;;;717.70;1894.40;;;;;;5084735;28;20489;-64
2023/07/07 09:19:56;;;;;;;15.88;13.38;;;717.60;1920.00;;;;;;5093395;28;20020;-64
2023/07/07 09:23:21;;;;;;;14.35;12.85;;;717.40;1945.60;;;;;;5119984;28;20043;-66
2023/07/07 09:33:17;;;;;;;19.02;12.57;;;717.30;1971.20;;;;;;5109398;22;20059;-62
2023/07/07 09:35:57;;;;;;;;;;;717.40;1971.20;;;;;;5052323;28;20542;-63
2023/07/07 09:38:48;;;;;;;16.58;13.20;;;717.70;1971.20;;;;;;5051866;28;20353;-62
2023/07/07 09:41:27;;;;;;;15.45;13.48;;;742.80;1971.20;;;;;;5051763;28;20108;-63
2023/07/07 09:44:17;;;;;;;15.43;13.18;;;743.10;1945.60;;;;;;5051353;28;20028;-64
2023/07/07 09:47:06;;;;;;;13.07;11.70;;;743.30;1945.60;;;;;;5063926;28;20058;-62
2023/07/07 09:49:41;;;;;;;14.68;13.05;;;768.50;1920.00;;;;;;5071075;28;20117;-63
2023/07/07 09:52:42;;;;;;;15.07;13.55;;;768.90;1894.40;;;;;;5071449;28;20378;-63
2023/07/07 09:55:32;;;;;;;16.38;14.00;;;793.80;1945.60;;;;;;5068165;28;20036;-63
2023/07/07 09:58:13;;;;;;;14.10;12.50;;;793.90;1868.80;;;;;;5071028;28;20060;-63
2023/07/07 10:00:40;;;;;;;16.90;15.10;;;794.00;1817.60;;;;;;5066539;28;20472;-63
2023/07/07 10:03:35;;;;;;;14.07;12.48;;;793.90;1868.80;;;;;;5069275;28;20168;-63
2023/07/07 10:06:38;;;;;;;17.38;13.10;;;794.00;1843.20;;;;;;5046902;28;20009;-64
2023/07/07 10:09:08;;;;;;;13.98;12.30;;;794.00;1843.20;;;;;;5065763;28;20043;-66
2023/07/07 10:11:35;;;;;;;15.75;12.52;;;793.90;1868.80;;;;;;5069418;28;20474;-63
2023/07/07 10:14:04;;;;;;;14.00;11.65;;;793.70;1894.40;;;;;;5069787;28;20039;-64
2023/07/07 10:16:32;;;;;;;13.40;11.70;;;768.80;1894.40;;;;;;5069109;28;20415;-62
2023/07/07 10:19:08;;;;;;;15.55;10.77;;;768.60;1894.40;;;;;;5069415;28;20472;-63
2023/07/07 10:21:34;;;;;;;19.38;12.15;;;768.30;1894.40;;;;;;5069242;28;20032;-63
2023/07/07 10:24:00;;;;;;;13.73;11.98;;;768.10;1894.40;;;;;;5069005;28;20024;-63
2023/07/07 10:26:26;;;;;;;15.00;11.18;;;768.10;1920.00;;;;;;5068462;28;20470;-62
2023/07/07 10:28:58;;;;;;;17.67;11.25;;;743.30;1971.20;;;;;;5068730;28;20021;-64
2023/07/07 10:31:26;;;;;;;12.38;10.43;;;743.20;1971.20;;;;;;5068681;28;20035;-63
2023/07/07 10:33:56;;;;;;;16.05;10.80;;;743.10;1945.60;;;;;;5068770;28;20178;-63
2023/07/07 10:36:30;;;;;;;12.32;10.10;;;743.30;1945.60;;;;;;5057526;28;20111;-63
2023/07/07 10:38:56;;;;;;;11.43;9.50;;;743.00;1945.60;;;;;;5067995;28;20017;-62
2023/07/07 10:41:26;;;;;;;10.70;9.00;;;742.80;1945.60;;;;;;5068915;28;20035;-63
2023/07/07 10:43:53;;;;;;;13.32;9.07;;;743.00;1920.00;;;;;;5068055;28;20020;-62
2023/07/07 10:46:19;;;;;;;11.93;9.00;;;743.30;1920.00;;;;;;5068913;28;20023;-63
2023/07/07 10:48:46;;;;;;;9.95;7.97;;;743.30;1945.60;;;;;;5068733;28;20471;-63
2023/07/07 10:51:21;;;;;;;11.88;9.18;;;743.30;1971.20;;;;;;5068298;28;20364;-64
2023/07/07 10:53:59;;;;;;;9.57;8.18;;;743.30;1920.00;;;;;;5042505;28;20020;-62
2023/07/07 10:56:34;;;;;;;13.32;8.55;;;768.20;1996.80;;;;;;5067995;28;20028;-63
2023/07/07 10:59:24;;;;;;;9.93;8.02;;;768.10;1920.00;;;;;;5068655;28;20026;-63
2023/07/07 11:01:54;;;;;;;15.27;12.32;;;768.30;1945.60;;;;;;5068206;28;20025;-63
2023/07/07 11:04:43;;;;;;;13.15;10.02;;;768.30;1920.00;;;;;;5068421;28;20039;-62
2023/07/07 11:07:19;;;;;;;12.27;8.52;;;743.30;1945.60;;;;;;5068537;28;20021;-63
2023/07/07 11:09:50;;;;;;;10.75;8.60;;;768.20;1920.00;;;;;;5067592;28;20104;-63
2023/07/07 11:12:35;;;;;;;12.52;9.25;;;768.30;1894.40;;;;;;5068004;28;20386;-63
2023/07/07 11:15:29;;;;;;;9.60;8.52;;;768.30;1894.40;;;;;;5045251;28;20023;-64
2023/07/07 11:18:40;;;;;;;10.02;9.00;;;768.40;1868.80;;;;;;5067746;28;20077;-63
2023/07/07 11:21:19;;;;;;;11.30;9.15;;;768.40;1894.40;;;;;;5005325;28;20030;-63
2023/07/07 11:24:26;;;;;;;17.55;9.13;;;768.20;1945.60;;;;;;5005542;28;20389;-63
2023/07/07 11:27:22;;;;;;;10.25;9.15;;;768.10;1920.00;;;;;;4947504;29;20043;-64
2023/07/07 11:29:54;;;;;;;10.88;9.60;;;768.20;1945.60;;;;;;4947895;29;20521;-64
2023/07/07 11:32:56;;;;;;;10.50;9.40;;;768.30;1894.40;;;;;;4947453;29;20035;-64
2023/07/07 11:36:03;;;;;;;14.93;9.88;;;768.40;1868.80;;;;;;4946742;29;20031;-63
2023/07/07 11:38:49;;;;;;;12.63;10.18;;;768.10;1868.80;;;;;;4947437;29;20811;-64
2023/07/07 11:41:38;;;;;;;10.52;9.48;;;768.10;1920.00;;;;;;4947424;29;20042;-64
2023/07/07 11:44:21;;;;;;;10.88;9.77;;;768.20;1920.00;;;;;;4947128;29;20035;-63
2023/07/07 11:46:47;;;;;;;;;;;768.10;1945.60;;;;;;4947548;29;20162;-63
2023/07/07 11:49:31;;;;;;;9.80;8.80;;;768.40;1920.00;;;;;;4947064;29;20378;-64
2023/07/07 11:52:06;;;;;;;10.88;9.00;;;768.40;1945.60;;;;;;4947403;29;20093;-63
2023/07/07 11:54:38;;;;;;;14.40;8.00;;;768.60;1868.80;;;;;;4946969;29;20106;-64
2023/07/07 11:57:11;;;;;;;9.90;8.90;;;768.60;1868.80;;;;;;4988825;28;20026;-64
2023/07/07 11:59:56;;;;;;;11.48;9.02;;;768.60;1868.80;;;;;;5005351;28;20099;-63
2023/07/07 12:02:29;;;;;;;9.93;8.23;;;768.80;1817.60;;;;;;5004735;28;20046;-64
2023/07/07 12:04:59;;;;;;;12.07;8.38;;;793.80;1868.80;;;;;;5035077;28;20094;-64
2023/07/07 12:07:51;;;;;;;9.98;7.82;;;793.90;1843.20;;;;;;5067375;28;20035;-63
2023/07/07 12:10:28;;;;;;;10.43;7.82;;;793.70;1843.20;;;;;;5067610;28;20100;-64
2023/07/07 12:13:14;;;;;;;10.13;7.72;;;793.80;1843.20;;;;;;5067119;28;20032;-64
2023/07/07 12:16:02;;;;;;;10.60;7.97;;;794.00;1817.60;;;;;;5067364;28;20031;-63
2023/07/07 12:18:33;;;;;;;11.07;7.53;;;793.60;1792.00;;;;;;5068017;28;20033;-64
2023/07/07 12:21:11;;;;;;;11.25;6.85;;;743.30;1843.20;;;;;;5067526;28;20478;-64
2023/07/07 12:23:40;;;;;;;12.18;6.88;;;717.50;1894.40;;;;;;5067375;28;20062;-65
2023/07/07 12:26:19;;;;;;;14.25;6.97;;;716.90;1920.00;;;;;;5067197;28;20075;-64
2023/07/07 12:28:52;;;;;;;9.18;6.57;;;691.50;1945.60;;;;;;5066904;28;20036;-64